Time;durP1;ratioP1;P1;durP2;ratioP2;P2;SDS_P1;SDS_P2;PMS_P1;PMS_P2;Temp;Humidity;BMP_temperature;BMP_pressure;BME280_temperature;BME280_humidity;BME280_pressure;Samples;Min_cycle;Max_cycle;Signal;HPM_P1;HPM_P2
2024/02/01 00:01:02;;;;;;;13.77;6.67;;;9.80;98.00;;;;;;5012232;28;20602;-88
2024/02/01 00:03:31;;;;;;;15.20;6.90;;;9.80;98.00;;;;;;5012361;28;20482;-88
2024/02/01 00:05:59;;;;;;;14.80;6.67;;;9.90;98.00;;;;;;5011666;28;20464;-88
2024/02/01 00:08:26;;;;;;;13.17;6.30;;;9.90;98.00;;;;;;5010527;28;20456;-88
2024/02/01 00:10:53;;;;;;;11.10;5.70;;;9.90;98.00;;;;;;5014526;28;20489;-88
2024/02/01 00:13:20;;;;;;;16.30;5.87;;;9.90;98.00;;;;;;5015502;28;20448;-88
2024/02/01 00:15:47;;;;;;;14.00;6.30;;;9.90;98.00;;;;;;5015341;28;20466;-88
2024/02/01 00:18:14;;;;;;;15.10;6.10;;;10.00;98.00;;;;;;5014920;28;20475;-89
2024/02/01 00:20:42;;;;;;;16.30;6.27;;;10.00;98.00;;;;;;5015556;28;20485;-88
2024/02/01 00:23:10;;;;;;;14.47;6.60;;;10.00;98.00;;;;;;5015499;28;20487;-87
2024/02/01 00:25:37;;;;;;;17.83;6.90;;;10.00;98.00;;;;;;5015259;28;20475;-88
2024/02/01 00:28:05;;;;;;;14.63;7.37;;;10.00;98.00;;;;;;5015223;28;20470;-89
2024/02/01 00:30:33;;;;;;;12.10;5.53;;;10.00;98.00;;;;;;5015321;28;20495;-88
2024/02/01 00:33:00;;;;;;;13.30;5.17;;;9.90;98.00;;;;;;5015466;28;20448;-89
2024/02/01 00:35:27;;;;;;;15.50;5.53;;;9.90;98.00;;;;;;5015283;28;20465;-88
2024/02/01 00:37:54;;;;;;;11.90;4.60;;;10.00;98.00;;;;;;5014984;28;20963;-88
2024/02/01 00:40:22;;;;;;;10.90;5.00;;;10.00;98.00;;;;;;5015145;28;20488;-89
2024/02/01 00:42:49;;;;;;;9.27;4.33;;;10.00;98.00;;;;;;5014879;28;20483;-89
2024/02/01 00:45:17;;;;;;;11.10;4.80;;;10.10;98.00;;;;;;5014851;28;20494;-88
2024/02/01 00:47:47;;;;;;;10.87;4.93;;;10.20;98.00;;;;;;5015043;28;20464;-89
2024/02/01 00:50:14;;;;;;;10.20;4.70;;;10.20;98.00;;;;;;5014653;28;20896;-88
2024/02/01 00:52:41;;;;;;;12.07;4.90;;;10.30;98.00;;;;;;5014999;28;20456;-88
2024/02/01 00:55:09;;;;;;;10.87;5.23;;;10.30;98.00;;;;;;5014627;28;20466;-88
2024/02/01 00:57:37;;;;;;;10.20;5.10;;;10.30;98.00;;;;;;5014846;28;20464;-89
2024/02/01 01:00:05;;;;;;;15.80;5.23;;;10.30;98.00;;;;;;5014287;28;20490;-89
2024/02/01 01:02:32;;;;;;;12.93;5.10;;;10.40;98.00;;;;;;5014895;28;20965;-88
2024/02/01 01:04:59;;;;;;;11.80;5.33;;;10.30;98.00;;;;;;5014930;28;20949;-88
2024/02/01 01:07:26;;;;;;;9.00;5.17;;;10.30;98.00;;;;;;5014814;28;21145;-88
2024/02/01 01:09:53;;;;;;;11.13;4.97;;;10.30;98.00;;;;;;5014160;28;20491;-88
2024/02/01 01:12:21;;;;;;;11.83;5.60;;;10.30;98.00;;;;;;5014319;28;20504;-88
2024/02/01 01:14:49;;;;;;;11.60;5.53;;;10.30;98.00;;;;;;5014222;28;20453;-88
2024/02/01 01:17:16;;;;;;;10.80;5.10;;;10.30;98.00;;;;;;5014279;28;20848;-88
2024/02/01 01:19:43;;;;;;;11.83;5.33;;;10.30;98.00;;;;;;5013909;28;20467;-89
2024/02/01 01:22:10;;;;;;;12.50;5.70;;;10.30;98.00;;;;;;5013930;28;20866;-89
2024/02/01 01:24:37;;;;;;;16.10;6.03;;;10.30;98.00;;;;;;5013971;28;20985;-88
2024/02/01 01:27:05;;;;;;;14.90;7.20;;;10.30;98.00;;;;;;5014407;28;20453;-89
2024/02/01 01:29:33;;;;;;;12.87;6.00;;;10.30;98.00;;;;;;5013866;28;20523;-89
2024/02/01 01:32:01;;;;;;;11.80;5.60;;;10.40;98.00;;;;;;5014038;28;20491;-89
2024/02/01 01:34:28;;;;;;;14.67;5.70;;;10.40;98.00;;;;;;5013922;28;20443;-88
2024/02/01 01:36:55;;;;;;;12.70;5.83;;;10.40;98.00;;;;;;5014189;28;20447;-89
2024/02/01 01:39:22;;;;;;;12.20;5.77;;;10.30;98.00;;;;;;5013639;28;20887;-88
2024/02/01 01:41:49;;;;;;;11.73;5.70;;;10.30;98.00;;;;;;5014352;28;20512;-89
2024/02/01 01:44:16;;;;;;;11.00;4.90;;;10.20;98.00;;;;;;5013496;28;20871;-88
2024/02/01 01:46:44;;;;;;;12.80;5.60;;;10.20;98.00;;;;;;5013721;28;20456;-88
2024/02/01 01:49:12;;;;;;;10.73;5.40;;;10.10;98.00;;;;;;5013228;28;20446;-88
2024/02/01 01:51:40;;;;;;;11.03;5.30;;;10.00;98.00;;;;;;5013871;28;20489;-88
2024/02/01 01:54:09;;;;;;;12.80;5.90;;;10.10;98.00;;;;;;5013585;28;20448;-88
2024/02/01 01:56:37;;;;;;;11.40;5.80;;;10.10;98.00;;;;;;5013951;28;20554;-88
2024/02/01 01:59:05;;;;;;;12.80;5.80;;;10.10;98.00;;;;;;5012946;28;20456;-88
2024/02/01 02:01:33;;;;;;;14.90;6.00;;;10.00;98.00;;;;;;5013286;28;20491;-88
2024/02/01 02:04:02;;;;;;;16.30;6.47;;;10.00;98.00;;;;;;5013350;28;20544;-87
2024/02/01 02:06:30;;;;;;;16.43;6.10;;;9.90;98.00;;;;;;5013755;28;20830;-88
2024/02/01 02:08:58;;;;;;;11.97;6.07;;;10.00;98.00;;;;;;5013135;28;20470;-88
2024/02/01 02:11:27;;;;;;;13.60;6.07;;;10.00;98.00;;;;;;5013840;28;20483;-88
2024/02/01 02:13:53;;;;;;;14.60;6.90;;;10.10;98.00;;;;;;5013355;28;20464;-87
2024/02/01 02:16:21;;;;;;;12.67;6.33;;;9.90;98.00;;;;;;5013261;28;20542;-88
2024/02/01 02:18:48;;;;;;;15.47;6.70;;;9.90;98.00;;;;;;5012832;28;20469;-88
2024/02/01 02:21:19;;;;;;;16.00;6.87;;;9.90;98.00;;;;;;5013585;28;20875;-88
2024/02/01 02:23:49;;;;;;;16.30;7.67;;;9.80;98.00;;;;;;5011675;28;20488;-87
2024/02/01 02:26:16;;;;;;;14.70;7.10;;;9.80;98.00;;;;;;5013427;28;20443;-89
2024/02/01 02:28:44;;;;;;;14.57;6.53;;;9.80;98.00;;;;;;5012739;28;20955;-88
2024/02/01 02:31:11;;;;;;;18.83;6.57;;;9.70;98.00;;;;;;5013207;28;20561;-88
2024/02/01 02:33:38;;;;;;;15.17;6.80;;;9.80;98.00;;;;;;5012173;28;20463;-88
2024/02/01 02:36:09;;;;;;;15.33;6.90;;;9.70;98.00;;;;;;5012707;28;20499;-88
2024/02/01 02:38:38;;;;;;;13.40;6.40;;;9.70;98.00;;;;;;5012627;28;20463;-88
2024/02/01 02:41:07;;;;;;;14.73;6.33;;;9.70;98.00;;;;;;5012924;28;20856;-88
2024/02/01 02:43:35;;;;;;;13.43;6.47;;;9.70;98.00;;;;;;5012530;28;20493;-88
2024/02/01 02:46:02;;;;;;;15.43;7.10;;;9.80;98.00;;;;;;5013087;28;20460;-89
2024/02/01 02:48:29;;;;;;;14.73;7.10;;;9.80;98.00;;;;;;5012298;28;20460;-89
2024/02/01 02:50:56;;;;;;;13.80;6.37;;;9.80;98.00;;;;;;5012568;28;20542;-88
2024/02/01 02:53:23;;;;;;;15.30;6.50;;;9.70;98.00;;;;;;5012834;28;20461;-89
2024/02/01 02:55:50;;;;;;;15.13;5.90;;;9.70;98.00;;;;;;5012513;28;20464;-88
2024/02/01 02:58:18;;;;;;;18.33;6.50;;;9.60;98.00;;;;;;5012170;28;20968;-88
2024/02/01 03:00:45;;;;;;;14.53;7.20;;;9.50;98.00;;;;;;5012802;28;20479;-88
2024/02/01 03:03:12;;;;;;;15.37;6.23;;;9.50;98.00;;;;;;5012754;28;20982;-88
2024/02/01 03:05:39;;;;;;;15.60;6.97;;;9.40;98.00;;;;;;5012467;28;20465;-89
2024/02/01 03:08:09;;;;;;;16.10;6.40;;;9.40;98.00;;;;;;5011898;28;20513;-88
2024/02/01 03:10:36;;;;;;;15.00;6.30;;;9.40;98.00;;;;;;5012937;28;20482;-89
2024/02/01 03:13:05;;;;;;;12.43;6.13;;;9.40;98.00;;;;;;5012401;28;20462;-89
2024/02/01 03:15:34;;;;;;;12.53;6.10;;;9.40;98.00;;;;;;5012560;28;20472;-88
2024/02/01 03:18:01;;;;;;;16.83;6.53;;;9.50;98.00;;;;;;5012362;28;20498;-88
2024/02/01 03:20:28;;;;;;;14.43;6.80;;;9.50;98.00;;;;;;5012531;28;20485;-88
2024/02/01 03:22:55;;;;;;;12.17;5.87;;;9.50;98.00;;;;;;5012629;28;20580;-89
2024/02/01 03:25:28;;;;;;;14.10;5.83;;;9.50;98.00;;;;;;5012455;28;20972;-88
2024/02/01 03:28:00;;;;;;;15.47;6.90;;;9.50;98.00;;;;;;5012158;28;20475;-88
2024/02/01 03:30:28;;;;;;;18.20;5.90;;;9.60;98.00;;;;;;5012458;28;20487;-88
2024/02/01 03:32:57;;;;;;;14.90;6.40;;;9.70;98.00;;;;;;5012683;28;20476;-88
2024/02/01 03:35:24;;;;;;;10.60;5.40;;;9.70;98.00;;;;;;5012463;28;20472;-88
2024/02/01 03:37:51;;;;;;;11.77;5.93;;;9.80;98.00;;;;;;5012173;28;20448;-88
2024/02/01 03:40:19;;;;;;;13.27;5.90;;;9.80;98.00;;;;;;5012035;28;20491;-88
2024/02/01 03:42:47;;;;;;;16.67;5.57;;;9.70;98.00;;;;;;5012067;28;20506;-88
2024/02/01 03:45:15;;;;;;;8.57;4.37;;;9.60;98.00;;;;;;5015829;28;20966;-88
2024/02/01 03:47:45;;;;;;;9.33;4.67;;;9.50;98.00;;;;;;5016320;28;20443;-88
2024/02/01 03:50:14;;;;;;;10.10;4.20;;;9.60;98.00;;;;;;5015936;28;20475;-87
2024/02/01 03:52:43;;;;;;;11.03;4.53;;;9.60;98.00;;;;;;5016449;28;20838;-88
2024/02/01 03:55:17;;;;;;;8.53;4.37;;;9.60;98.00;;;;;;5016072;28;20521;-89
2024/02/01 03:57:44;;;;;;;9.50;4.23;;;9.70;98.00;;;;;;5016093;28;20440;-88
2024/02/01 04:00:25;;;;;;;7.40;4.07;;;9.70;98.00;;;;;;5015275;28;20544;-89
2024/02/01 04:02:56;;;;;;;6.60;3.77;;;9.80;98.00;;;;;;5015930;28;20486;-88
2024/02/01 04:05:25;;;;;;;6.73;3.63;;;9.80;98.00;;;;;;5015938;28;20443;-88
2024/02/01 04:07:53;;;;;;;18.90;4.77;;;9.90;98.00;;;;;;5015395;28;20495;-87
2024/02/01 04:10:20;;;;;;;6.40;3.60;;;9.90;98.00;;;;;;5015587;28;20487;-89
2024/02/01 04:12:47;;;;;;;7.67;3.90;;;9.90;98.00;;;;;;5015793;28;20463;-88
2024/02/01 04:15:15;;;;;;;6.83;3.50;;;9.90;98.00;;;;;;5015897;28;20825;-88
2024/02/01 04:17:43;;;;;;;12.73;3.87;;;9.90;98.00;;;;;;5015678;28;20518;-88
2024/02/01 04:20:14;;;;;;;8.27;3.77;;;10.00;98.00;;;;;;5015395;28;20508;-88
2024/02/01 04:22:43;;;;;;;7.03;4.10;;;10.00;98.00;;;;;;5015575;28;20911;-88
2024/02/01 04:25:10;;;;;;;6.70;3.57;;;10.00;98.00;;;;;;5015229;28;20463;-88
2024/02/01 04:27:37;;;;;;;7.23;4.00;;;10.00;98.00;;;;;;5015143;28;20453;-88
2024/02/01 04:30:06;;;;;;;8.90;4.30;;;10.00;98.00;;;;;;5015111;28;20569;-88
2024/02/01 04:32:33;;;;;;;10.03;4.63;;;10.00;98.00;;;;;;5015239;28;20513;-88
2024/02/01 04:35:03;;;;;;;12.93;3.93;;;9.90;98.00;;;;;;5015139;28;20457;-89
2024/02/01 04:37:31;;;;;;;7.47;3.90;;;9.90;98.00;;;;;;5015531;28;20447;-88
2024/02/01 04:40:00;;;;;;;10.07;4.20;;;9.80;98.00;;;;;;5014672;28;20480;-88
2024/02/01 04:42:30;;;;;;;11.37;4.10;;;9.80;98.00;;;;;;5015474;28;20837;-88
2024/02/01 04:44:58;;;;;;;10.37;4.30;;;9.80;98.00;;;;;;5014922;28;20968;-88
2024/02/01 04:47:25;;;;;;;6.80;3.80;;;9.70;98.00;;;;;;5015305;28;20471;-88
2024/02/01 04:49:52;;;;;;;7.07;4.00;;;9.70;98.00;;;;;;5014504;28;20533;-88
2024/02/01 04:52:19;;;;;;;6.63;3.83;;;9.70;98.00;;;;;;5015411;28;20516;-89
2024/02/01 04:54:46;;;;;;;8.03;3.90;;;9.70;98.00;;;;;;5014826;28;20483;-88
2024/02/01 04:57:15;;;;;;;9.27;4.40;;;9.70;98.00;;;;;;5014992;28;20507;-88
2024/02/01 04:59:43;;;;;;;8.07;4.17;;;9.70;98.00;;;;;;5015175;28;20947;-88
2024/02/01 05:02:10;;;;;;;9.47;4.00;;;9.70;98.00;;;;;;5014710;28;20502;-89
2024/02/01 05:04:37;;;;;;;9.40;4.40;;;9.80;98.00;;;;;;5014593;28;20486;-89
2024/02/01 05:07:05;;;;;;;8.20;3.90;;;9.80;98.00;;;;;;5014953;28;20461;-88
2024/02/01 05:09:33;;;;;;;7.17;3.87;;;9.80;98.00;;;;;;5014232;28;20502;-88
2024/02/01 05:29:56;;;;;;;7.30;3.60;;;9.90;98.00;;;;;;4922686;29;20458;-88
2024/02/01 05:42:58;;;;;;;9.20;3.47;;;9.80;98.00;;;;;;4881475;29;20437;-89
2024/02/01 05:45:28;;;;;;;8.23;3.57;;;9.80;98.00;;;;;;4877637;29;20980;-88
2024/02/01 05:54:28;;;;;;;14.90;4.10;;;9.80;98.00;;;;;;4883384;29;20421;-89
2024/02/01 06:00:57;;;;;;;5.50;3.60;;;9.70;98.00;;;;;;4932676;29;20491;-88
2024/02/01 06:03:25;;;;;;;6.27;3.70;;;9.70;98.00;;;;;;4955084;28;20536;-88
2024/02/01 06:15:53;;;;;;;5.57;3.17;;;9.80;98.00;;;;;;5012843;28;20838;-87
2024/02/01 06:32:57;;;;;;;8.77;3.80;;;9.70;98.00;;;;;;4939970;29;20412;-88
2024/02/01 06:58:29;;;;;;;9.90;5.10;;;8.90;98.00;;;;;;4971006;28;20525;-88
2024/02/01 07:02:02;;;;;;;11.90;4.97;;;8.90;98.00;;;;;;4971015;28;20985;-88
2024/02/01 07:04:41;;;;;;;8.40;4.50;;;8.70;98.00;;;;;;4956350;28;20507;-88
2024/02/01 07:07:18;;;;;;;8.00;4.30;;;8.60;98.00;;;;;;4971318;28;20475;-88
2024/02/01 07:10:06;;;;;;;7.90;3.87;;;8.80;98.00;;;;;;5011461;28;20454;-88
2024/02/01 07:12:42;;;;;;;11.23;4.50;;;8.70;98.00;;;;;;5013268;28;20453;-87
2024/02/01 07:15:19;;;;;;;10.07;4.10;;;8.80;98.00;;;;;;5012498;28;20466;-88
2024/02/01 07:17:48;;;;;;;7.70;3.90;;;8.80;98.00;;;;;;5012820;28;20892;-86
2024/02/01 07:20:23;;;;;;;12.80;4.03;;;8.70;98.00;;;;;;5011159;28;21027;-87
2024/02/01 07:23:03;;;;;;;10.07;4.30;;;8.60;98.00;;;;;;5012129;28;20519;-87
2024/02/01 07:25:47;;;;;;;9.30;4.97;;;8.60;98.00;;;;;;5012161;28;20517;-87
2024/02/01 07:57:50;;;;;;;8.87;4.77;;;8.80;98.00;;;;;;5011978;28;20440;-88
2024/02/01 08:00:19;;;;;;;9.23;4.70;;;8.90;98.00;;;;;;5011054;28;20572;-87
2024/02/01 08:02:49;;;;;;;8.93;5.03;;;9.00;98.00;;;;;;5011978;28;20928;-88
2024/02/01 08:07:59;;;;;;;12.00;5.20;;;8.90;98.00;;;;;;4999065;28;20807;-88
2024/02/01 08:10:26;;;;;;;9.80;4.90;;;8.90;98.00;;;;;;5012085;28;20491;-88
2024/02/01 08:12:55;;;;;;;9.03;4.57;;;8.90;98.00;;;;;;5011739;28;20456;-88
2024/02/01 08:15:22;;;;;;;15.60;5.80;;;9.10;98.00;;;;;;5011485;28;20485;-88
2024/02/01 08:21:04;;;;;;;9.30;5.00;;;9.00;98.00;;;;;;5011127;28;20530;-89
2024/02/01 08:23:33;;;;;;;11.70;5.50;;;8.80;98.00;;;;;;5011345;28;20480;-88
2024/02/01 08:26:02;;;;;;;12.37;5.40;;;8.70;98.00;;;;;;5011210;28;20463;-88
2024/02/01 08:28:33;;;;;;;10.17;5.50;;;8.90;98.00;;;;;;5011229;28;20547;-88
2024/02/01 08:31:08;;;;;;;11.60;5.63;;;8.80;98.00;;;;;;5013090;28;20483;-88
2024/02/01 08:33:42;;;;;;;14.80;5.70;;;8.80;98.00;;;;;;5014015;28;20458;-88
2024/02/01 08:36:12;;;;;;;11.10;5.50;;;8.70;98.00;;;;;;5015361;28;20455;-88
2024/02/01 08:38:40;;;;;;;14.23;6.60;;;8.80;98.00;;;;;;5015012;28;20815;-88
2024/02/01 08:41:07;;;;;;;16.23;6.23;;;8.90;98.00;;;;;;5014838;28;20987;-87
2024/02/01 08:43:38;;;;;;;11.93;5.20;;;9.00;98.00;;;;;;5015171;28;20989;-88
2024/02/01 08:46:07;;;;;;;10.80;4.77;;;9.10;98.00;;;;;;5014679;28;20584;-87
2024/02/01 08:48:34;;;;;;;13.73;5.40;;;9.20;98.00;;;;;;5014820;28;20457;-87
2024/02/01 08:51:01;;;;;;;9.70;4.70;;;9.30;98.00;;;;;;5014981;28;20487;-87
2024/02/01 08:53:28;;;;;;;8.80;4.70;;;9.20;98.00;;;;;;5014861;28;20831;-87
2024/02/01 08:55:56;;;;;;;9.10;4.80;;;9.30;98.00;;;;;;5015052;28;20462;-87
2024/02/01 08:58:24;;;;;;;7.93;3.60;;;9.40;98.00;;;;;;5014583;28;20460;-87
2024/02/01 09:00:51;;;;;;;9.10;4.20;;;9.40;98.00;;;;;;5014559;28;20491;-87
2024/02/01 09:03:30;;;;;;;9.40;4.30;;;9.40;98.00;;;;;;5015153;28;21211;-87
2024/02/01 09:06:08;;;;;;;10.27;4.67;;;9.40;98.00;;;;;;5012956;28;20886;-90
2024/02/01 09:08:36;;;;;;;9.00;4.60;;;9.40;98.00;;;;;;5014104;28;20825;-89
2024/02/01 09:11:45;;;;;;;10.10;5.00;;;9.40;98.00;;;;;;5015080;28;20510;-89
2024/02/01 09:14:35;;;;;;;10.30;4.13;;;9.40;98.00;;;;;;5011640;28;20498;-89
2024/02/01 09:17:03;;;;;;;11.93;4.97;;;9.50;98.00;;;;;;5018355;28;20456;-88
2024/02/01 09:19:31;;;;;;;8.83;4.40;;;9.40;98.00;;;;;;5023891;28;20471;-90
2024/02/01 09:22:00;;;;;;;9.93;5.27;;;9.50;98.00;;;;;;5031825;28;20479;-89
2024/02/01 09:24:27;;;;;;;13.30;5.30;;;9.40;98.00;;;;;;5024895;28;20523;-91
2024/02/01 09:26:54;;;;;;;11.53;4.50;;;9.40;98.00;;;;;;5030391;28;20461;-89
2024/02/01 09:29:22;;;;;;;11.73;5.13;;;9.30;98.00;;;;;;5027949;28;20462;-90
2024/02/01 09:31:51;;;;;;;10.90;5.03;;;9.40;98.00;;;;;;5024282;28;20518;-88
2024/02/01 09:34:18;;;;;;;8.93;4.30;;;9.30;98.00;;;;;;5023192;28;20459;-89
2024/02/01 09:36:46;;;;;;;4.50;3.00;;;9.20;98.00;;;;;;5021049;28;20547;-89
2024/02/01 09:39:16;;;;;;;6.33;3.20;;;9.30;98.00;;;;;;5018006;28;20474;-90
2024/02/01 09:41:43;;;;;;;8.57;3.70;;;9.20;98.00;;;;;;5016661;28;20497;-89
2024/02/01 09:44:10;;;;;;;12.60;4.53;;;9.10;98.00;;;;;;5017165;28;20483;-89
2024/02/01 09:46:37;;;;;;;8.87;3.87;;;9.00;98.00;;;;;;5015760;28;20460;-90
2024/02/01 09:49:08;;;;;;;10.73;3.80;;;8.90;98.00;;;;;;5014833;28;20460;-92
2024/02/01 09:51:35;;;;;;;6.60;3.50;;;8.90;98.00;;;;;;5014274;28;20490;-90
2024/02/01 09:54:03;;;;;;;8.30;3.33;;;8.90;98.00;;;;;;5013720;28;20947;-90
2024/02/01 09:56:30;;;;;;;5.67;3.30;;;8.90;98.00;;;;;;5013803;28;20469;-88
2024/02/01 09:58:58;;;;;;;4.53;2.70;;;9.00;98.00;;;;;;5012936;28;20875;-89
2024/02/01 10:01:25;;;;;;;5.73;3.17;;;9.00;98.00;;;;;;5013539;28;20530;-89
2024/02/01 10:03:54;;;;;;;4.13;2.50;;;9.10;98.00;;;;;;5013464;28;20494;-87
2024/02/01 10:06:24;;;;;;;5.03;2.83;;;9.20;98.00;;;;;;5013451;28;20554;-90
2024/02/01 10:08:53;;;;;;;4.97;2.80;;;9.20;98.00;;;;;;5013583;28;20811;-90
2024/02/01 10:11:20;;;;;;;8.20;3.37;;;9.30;98.00;;;;;;5013747;28;20484;-90
2024/02/01 10:13:47;;;;;;;5.40;3.10;;;9.30;98.00;;;;;;5013546;28;20464;-91
2024/02/01 10:16:16;;;;;;;4.73;2.30;;;9.40;98.00;;;;;;5013816;28;20467;-91
2024/02/01 10:18:52;;;;;;;4.40;2.63;;;9.60;98.00;;;;;;5013915;28;20460;-90
2024/02/01 10:21:25;;;;;;;4.43;2.60;;;9.60;98.00;;;;;;5014354;28;20499;-90
2024/02/01 10:24:04;;;;;;;3.47;2.30;;;9.70;98.00;;;;;;5012630;28;20508;-92
2024/02/01 10:26:32;;;;;;;4.80;2.70;;;9.80;98.00;;;;;;5013752;28;20465;-92
2024/02/01 10:28:59;;;;;;;3.83;2.70;;;9.90;98.00;;;;;;5012358;28;20551;-90
2024/02/01 10:31:28;;;;;;;5.20;2.97;;;9.90;98.00;;;;;;5013131;28;20472;-89
2024/02/01 10:34:05;;;;;;;6.93;3.93;;;9.80;98.00;;;;;;5014013;28;20822;-94
2024/02/01 10:36:37;;;;;;;8.27;3.93;;;9.90;98.00;;;;;;5014070;28;20511;-93
2024/02/01 10:39:06;;;;;;;8.30;4.07;;;9.90;98.00;;;;;;5013111;28;20451;-92
2024/02/01 10:41:37;;;;;;;8.60;4.20;;;9.80;98.00;;;;;;5012915;28;20514;-91
2024/02/01 10:44:05;;;;;;;6.47;3.70;;;9.90;98.00;;;;;;5013016;28;20479;-91
2024/02/01 10:46:40;;;;;;;8.07;3.50;;;9.90;98.00;;;;;;5013396;28;20457;-93
2024/02/01 10:49:17;;;;;;;6.07;3.37;;;9.70;98.00;;;;;;5012875;28;20475;-92
2024/02/01 10:51:51;;;;;;;3.17;2.23;;;9.60;98.00;;;;;;5013200;28;20489;-92
2024/02/01 10:54:20;;;;;;;4.37;2.47;;;9.40;98.00;;;;;;5014877;28;20544;-93
2024/02/01 10:56:48;;;;;;;5.73;3.13;;;9.40;98.00;;;;;;5013085;28;20463;-92
2024/02/01 10:59:17;;;;;;;3.70;2.70;;;9.40;98.00;;;;;;5013005;28;20498;-93
2024/02/01 11:01:46;;;;;;;3.63;2.30;;;9.40;98.00;;;;;;5013762;28;20881;-91
2024/02/01 11:04:15;;;;;;;4.80;2.40;;;9.50;98.00;;;;;;5013366;28;20482;-92
2024/02/01 11:06:48;;;;;;;3.90;2.37;;;9.60;98.00;;;;;;5012984;28;20460;-91
2024/02/01 11:09:19;;;;;;;4.17;2.50;;;9.60;98.00;;;;;;5012852;28;20470;-92
2024/02/01 11:11:49;;;;;;;3.53;2.40;;;9.50;98.00;;;;;;5012629;28;20472;-92
2024/02/01 11:14:21;;;;;;;3.00;1.93;;;9.70;98.00;;;;;;5011449;28;20444;-91
2024/02/01 11:16:52;;;;;;;3.77;2.27;;;9.70;98.00;;;;;;5012846;28;20461;-91
2024/02/01 11:19:22;;;;;;;3.20;2.30;;;9.60;98.00;;;;;;5012211;28;20941;-91
2024/02/01 11:21:54;;;;;;;4.03;2.50;;;9.50;98.00;;;;;;5012240;28;20483;-91
2024/02/01 11:24:24;;;;;;;4.87;2.40;;;9.50;98.00;;;;;;5012143;28;20539;-89
2024/02/01 11:26:55;;;;;;;4.10;2.50;;;9.50;98.00;;;;;;5012387;28;20457;-91
2024/02/01 11:29:24;;;;;;;3.80;2.37;;;9.40;98.00;;;;;;5012051;28;20485;-90
2024/02/01 11:31:56;;;;;;;4.03;2.40;;;9.40;98.00;;;;;;5012183;28;20490;-90
2024/02/01 11:34:24;;;;;;;5.13;2.60;;;9.40;98.00;;;;;;5012178;28;20477;-90
2024/02/01 11:36:53;;;;;;;3.63;2.30;;;9.40;98.00;;;;;;5012385;28;21018;-91
2024/02/01 11:39:20;;;;;;;3.20;2.10;;;9.40;98.00;;;;;;5011512;28;20459;-90
2024/02/01 11:41:50;;;;;;;4.00;2.30;;;9.50;98.00;;;;;;5011971;28;20481;-90
2024/02/01 11:44:18;;;;;;;3.57;2.20;;;9.50;98.00;;;;;;5012115;28;20816;-91
2024/02/01 11:46:46;;;;;;;2.90;2.10;;;9.60;98.00;;;;;;5012286;28;20463;-90
2024/02/01 11:49:17;;;;;;;4.47;2.23;;;9.80;98.00;;;;;;5011463;28;20538;-92
2024/02/01 11:51:45;;;;;;;2.77;2.07;;;9.80;98.00;;;;;;5012339;28;20486;-90
2024/02/01 11:54:14;;;;;;;4.00;2.33;;;9.80;98.00;;;;;;5011804;28;20482;-91
2024/02/01 11:56:44;;;;;;;3.07;2.17;;;9.70;98.00;;;;;;5011995;28;20482;-90
2024/02/01 11:59:12;;;;;;;4.83;3.07;;;9.60;98.00;;;;;;5012654;28;20460;-92
2024/02/01 12:01:40;;;;;;;3.40;2.43;;;9.60;98.00;;;;;;5011708;28;20485;-92
2024/02/01 12:04:08;;;;;;;4.23;2.90;;;9.50;98.00;;;;;;5011964;28;20438;-91
2024/02/01 12:06:36;;;;;;;3.70;2.37;;;9.50;98.00;;;;;;5015890;28;20459;-89
2024/02/01 12:09:05;;;;;;;5.87;2.87;;;9.50;98.00;;;;;;5015270;28;20824;-90
2024/02/01 12:11:36;;;;;;;3.70;2.50;;;9.50;98.00;;;;;;5015590;28;20885;-89
2024/02/01 12:14:11;;;;;;;3.67;2.80;;;9.50;98.00;;;;;;5015326;28;20493;-90
2024/02/01 12:16:41;;;;;;;4.63;2.80;;;9.50;98.00;;;;;;5015669;28;20473;-89
2024/02/01 12:19:12;;;;;;;4.27;2.77;;;9.50;98.00;;;;;;5015388;28;20470;-90
2024/02/01 12:21:40;;;;;;;3.73;2.57;;;9.50;98.00;;;;;;5015504;28;20515;-89
2024/02/01 12:24:07;;;;;;;6.50;2.93;;;9.50;98.00;;;;;;5015261;28;20479;-89
2024/02/01 12:26:36;;;;;;;4.80;2.77;;;9.60;98.00;;;;;;5015473;28;20494;-89
2024/02/01 12:29:03;;;;;;;5.70;2.57;;;9.60;98.00;;;;;;5014836;28;20464;-90
2024/02/01 12:31:30;;;;;;;3.80;2.60;;;9.60;98.00;;;;;;5015319;28;20475;-90
2024/02/01 12:33:58;;;;;;;4.37;2.90;;;9.60;98.00;;;;;;5015395;28;20471;-90
2024/02/01 12:36:28;;;;;;;3.03;2.40;;;9.70;98.00;;;;;;5014983;28;20590;-90
2024/02/01 12:38:55;;;;;;;4.53;2.80;;;9.80;98.00;;;;;;5014373;28;20464;-90
2024/02/01 12:41:22;;;;;;;5.33;3.00;;;9.80;98.00;;;;;;5014954;28;20479;-90
2024/02/01 12:43:52;;;;;;;4.73;2.67;;;9.90;98.00;;;;;;5015071;28;20465;-90
2024/02/01 12:46:23;;;;;;;4.80;3.00;;;9.90;98.00;;;;;;5014607;28;20551;-89
2024/02/01 12:48:51;;;;;;;5.80;2.77;;;9.90;98.00;;;;;;5014574;28;20449;-88
2024/02/01 12:51:18;;;;;;;5.20;2.73;;;9.90;98.00;;;;;;5014568;28;20552;-89
2024/02/01 12:53:45;;;;;;;4.00;2.60;;;10.00;98.00;;;;;;5014943;28;21330;-89
2024/02/01 12:56:12;;;;;;;4.20;2.57;;;10.00;98.00;;;;;;5014474;28;20941;-89
2024/02/01 12:58:40;;;;;;;6.30;3.23;;;10.00;98.00;;;;;;5014383;28;20463;-90
2024/02/01 13:01:09;;;;;;;4.10;2.80;;;9.90;98.00;;;;;;5014875;28;20491;-90
2024/02/01 13:03:36;;;;;;;5.70;3.20;;;10.00;98.00;;;;;;5014943;28;20458;-89
2024/02/01 13:06:03;;;;;;;4.73;3.03;;;10.20;98.00;;;;;;5014419;28;20485;-89
2024/02/01 13:08:30;;;;;;;6.20;3.00;;;10.10;98.00;;;;;;5013714;28;20469;-89
2024/02/01 13:11:02;;;;;;;6.40;3.50;;;10.20;98.00;;;;;;5014469;28;20491;-90
2024/02/01 13:13:30;;;;;;;5.17;3.27;;;10.20;98.00;;;;;;5014366;28;20463;-90
2024/02/01 13:15:57;;;;;;;7.30;3.13;;;10.20;98.00;;;;;;5014234;28;20460;-90
2024/02/01 13:18:26;;;;;;;4.70;3.20;;;10.10;98.00;;;;;;5013705;28;20510;-90
2024/02/01 13:20:55;;;;;;;5.97;3.00;;;10.10;98.00;;;;;;5014463;28;20485;-90
2024/02/01 13:23:22;;;;;;;4.70;3.13;;;10.00;98.00;;;;;;5014422;28;20462;-90
2024/02/01 13:25:50;;;;;;;7.13;3.10;;;10.00;98.00;;;;;;5014127;28;20495;-90
2024/02/01 13:28:17;;;;;;;7.07;3.60;;;9.90;98.00;;;;;;5013814;28;20967;-91
2024/02/01 13:30:45;;;;;;;4.20;3.30;;;9.90;98.00;;;;;;5014109;28;20484;-89
2024/02/01 13:33:14;;;;;;;6.37;3.50;;;9.80;98.00;;;;;;5014398;28;20832;-90
2024/02/01 13:35:44;;;;;;;5.37;3.17;;;9.80;98.00;;;;;;5014299;28;20871;-91
2024/02/01 13:38:11;;;;;;;4.13;3.00;;;9.90;98.00;;;;;;5014223;28;20456;-89
2024/02/01 13:40:38;;;;;;;4.73;3.20;;;9.90;98.00;;;;;;5014216;28;20490;-91
2024/02/01 13:43:06;;;;;;;5.80;3.40;;;9.80;98.00;;;;;;5014315;28;20470;-90
2024/02/01 13:45:33;;;;;;;4.67;2.80;;;9.80;98.00;;;;;;5013623;28;20483;-90
2024/02/01 13:48:00;;;;;;;6.13;3.20;;;9.80;98.00;;;;;;5013729;28;20476;-89
2024/02/01 13:50:27;;;;;;;5.30;3.20;;;9.80;98.00;;;;;;5013770;28;20491;-90
2024/02/01 13:52:56;;;;;;;4.90;3.50;;;9.90;98.00;;;;;;5013882;28;20453;-90
2024/02/01 13:55:24;;;;;;;5.27;3.10;;;9.80;98.00;;;;;;5013483;28;20460;-90
2024/02/01 13:57:51;;;;;;;8.27;3.33;;;9.80;98.00;;;;;;5014100;28;20448;-90
2024/02/01 14:00:19;;;;;;;5.20;3.20;;;9.90;98.00;;;;;;5012938;28;20491;-90
2024/02/01 14:02:48;;;;;;;7.00;3.40;;;9.80;98.00;;;;;;5013557;28;20514;-90
2024/02/01 14:05:16;;;;;;;6.20;3.50;;;9.70;98.00;;;;;;5013315;28;20996;-90
2024/02/01 14:07:44;;;;;;;4.60;3.10;;;9.80;98.00;;;;;;5013300;28;20470;-89
2024/02/01 14:10:13;;;;;;;5.40;3.07;;;9.80;98.00;;;;;;5013173;28;20972;-90
2024/02/01 14:12:41;;;;;;;6.10;3.83;;;9.80;98.00;;;;;;5013628;28;20795;-90
2024/02/01 14:15:09;;;;;;;5.30;3.03;;;9.80;98.00;;;;;;5013081;28;20464;-90
2024/02/01 14:17:36;;;;;;;6.10;3.50;;;9.70;98.00;;;;;;5013467;28;20458;-90
2024/02/01 14:20:04;;;;;;;5.50;3.77;;;9.80;98.00;;;;;;5012791;28;20483;-90
2024/02/01 14:22:32;;;;;;;6.77;3.77;;;9.70;98.00;;;;;;5013045;28;20455;-91
2024/02/01 14:24:59;;;;;;;10.00;3.80;;;9.60;98.00;;;;;;5012860;28;20442;-89
2024/02/01 14:27:28;;;;;;;5.13;3.33;;;9.70;98.00;;;;;;5013020;28;20955;-89
2024/02/01 14:29:55;;;;;;;5.70;3.60;;;9.70;98.00;;;;;;5012125;28;20473;-89
2024/02/01 14:32:22;;;;;;;5.27;3.50;;;9.80;98.00;;;;;;5012782;28;20468;-90
2024/02/01 14:34:49;;;;;;;6.23;3.40;;;9.80;98.00;;;;;;5012884;28;20952;-90
2024/02/01 14:37:17;;;;;;;4.40;2.60;;;10.10;98.00;;;;;;5013638;28;20802;-90
2024/02/01 14:39:48;;;;;;;5.27;3.47;;;10.80;98.00;;;;;;5012794;28;20487;-90
2024/02/01 14:42:15;;;;;;;6.67;3.60;;;11.20;98.00;;;;;;5013643;28;20874;-90
2024/02/01 14:44:43;;;;;;;7.30;3.97;;;11.10;98.00;;;;;;5013450;28;20899;-90
2024/02/01 14:47:10;;;;;;;11.00;5.03;;;10.70;98.00;;;;;;5013461;28;20494;-90
2024/02/01 14:49:38;;;;;;;8.90;4.40;;;10.50;98.00;;;;;;5012518;28;20482;-90
2024/02/01 14:52:05;;;;;;;8.60;4.33;;;10.20;98.00;;;;;;5013084;28;20456;-90
2024/02/01 14:54:33;;;;;;;7.03;4.03;;;10.10;98.00;;;;;;5012437;28;20460;-90
2024/02/01 14:57:00;;;;;;;6.30;3.60;;;10.00;98.00;;;;;;5012905;28;20460;-90
2024/02/01 14:59:27;;;;;;;7.20;4.20;;;9.90;98.00;;;;;;5012141;28;20470;-89
2024/02/01 15:01:55;;;;;;;6.60;3.80;;;9.70;98.00;;;;;;5012816;28;20476;-90